createdAt,value
2019-02-05T00:00:44.830Z,7.43
2019-02-05T00:03:15.050Z,8.05
2019-02-05T00:05:43.597Z,7.54
2019-02-05T00:08:14.740Z,7.74
2019-02-05T00:10:43.027Z,7.80
2019-02-05T00:13:11.794Z,7.73
2019-02-05T00:15:40.113Z,7.70
2019-02-05T00:18:08.421Z,7.79
2019-02-05T00:20:36.762Z,7.07
2019-02-05T00:23:05.233Z,6.82
2019-02-05T00:25:33.492Z,7.48
2019-02-05T00:28:01.783Z,8.26
2019-02-05T00:30:30.047Z,8.72
2019-02-05T00:32:58.431Z,8.48
2019-02-05T00:35:26.872Z,8.25
2019-02-05T00:37:55.233Z,8.26
2019-02-05T00:40:23.596Z,8.71
2019-02-05T00:42:51.863Z,7.56
2019-02-05T00:45:20.589Z,7.43
2019-02-05T00:47:49.223Z,7.04
2019-02-05T00:50:19.133Z,7.73
2019-02-05T00:52:47.415Z,7.36
2019-02-05T00:55:19.984Z,7.53
2019-02-05T00:57:48.401Z,6.62
2019-02-05T01:00:32.134Z,7.19
2019-02-05T01:03:00.770Z,7.79
2019-02-05T01:05:29.052Z,6.91
2019-02-05T01:07:58.178Z,7.45
2019-02-05T01:10:26.798Z,6.94
2019-02-05T01:12:55.675Z,6.84
2019-02-05T01:15:25.681Z,7.34
2019-02-05T01:17:54.288Z,8.20
2019-02-05T01:20:23.215Z,7.88
2019-02-05T01:22:51.961Z,7.47
2019-02-05T01:25:21.053Z,7.38
2019-02-05T01:27:50.148Z,8.08
2019-02-05T01:30:23.677Z,7.28
2019-02-05T01:32:52.115Z,7.48
2019-02-05T01:35:20.548Z,7.31
2019-02-05T01:37:49.061Z,6.37
2019-02-05T01:40:19.516Z,6.91
2019-02-05T01:42:47.769Z,6.85
2019-02-05T01:45:21.151Z,6.77
2019-02-05T01:47:49.654Z,7.40
2019-02-05T01:50:25.624Z,6.77
2019-02-05T01:52:53.969Z,7.50
2019-02-05T01:55:22.506Z,6.69
2019-02-05T01:57:50.768Z,7.21
2019-02-05T02:00:21.740Z,7.60
2019-02-05T02:02:50.294Z,7.53
2019-02-05T02:05:18.702Z,6.24
2019-02-05T02:07:47.113Z,6.88
2019-02-05T02:10:21.045Z,6.75
2019-02-05T02:12:49.398Z,6.41
2019-02-05T02:15:18.294Z,5.84
2019-02-05T02:17:46.783Z,6.27
2019-02-05T02:20:17.083Z,6.23
2019-02-05T02:22:45.610Z,5.93
2019-02-05T02:25:14.825Z,6.08
2019-02-05T02:27:43.469Z,5.90
2019-02-05T02:30:17.497Z,5.77
2019-02-05T02:32:45.899Z,5.66
2019-02-05T02:35:14.251Z,5.47
2019-02-05T02:37:42.762Z,5.99
2019-02-05T02:40:11.899Z,6.78
2019-02-05T02:42:40.437Z,6.71
2019-02-05T02:45:12.192Z,6.07
2019-02-05T02:47:40.471Z,6.07
2019-02-05T02:50:14.758Z,6.23
2019-02-05T02:52:43.031Z,5.73
2019-02-05T02:55:11.434Z,5.66
2019-02-05T02:57:39.710Z,4.89
2019-02-05T03:00:11.377Z,5.32
2019-02-05T03:02:39.648Z,4.92
2019-02-05T03:05:10.771Z,6.70
2019-02-05T03:07:39.281Z,6.14
2019-02-05T03:10:11.235Z,5.78
2019-02-05T03:12:39.498Z,5.56
2019-02-05T03:15:10.029Z,6.45
2019-02-05T03:17:38.289Z,6.20
2019-02-05T03:20:09.701Z,6.76
2019-02-05T03:22:37.996Z,6.43
2019-02-05T03:25:09.700Z,6.30
2019-02-05T03:27:38.253Z,5.65
2019-02-05T03:30:12.393Z,6.62
2019-02-05T03:32:40.657Z,6.32
2019-02-05T03:35:09.871Z,6.25
2019-02-05T03:37:38.204Z,5.75
2019-02-05T03:40:40.783Z,6.58
2019-02-05T03:43:09.125Z,5.23
2019-02-05T03:45:37.673Z,6.32
2019-02-05T03:48:06.467Z,6.32
2019-02-05T03:50:46.218Z,5.72
2019-02-05T03:53:17.672Z,5.48
2019-02-05T03:56:05.789Z,5.57
2019-02-05T03:58:54.581Z,5.62
2019-02-05T04:01:56.580Z,5.83
2019-02-05T04:04:34.095Z,5.79
2019-02-05T04:07:40.621Z,6.35
2019-02-05T04:10:28.975Z,6.63
2019-02-05T04:13:15.424Z,6.42
2019-02-05T04:16:04.607Z,6.22
2019-02-05T04:19:04.071Z,5.98
2019-02-05T04:21:41.275Z,5.32
2019-02-05T04:24:18.527Z,6.47
2019-02-05T04:26:52.907Z,5.89
2019-02-05T04:29:45.606Z,6.00
2019-02-05T04:32:29.222Z,6.16
2019-02-05T04:35:06.218Z,6.10
2019-02-05T04:37:49.712Z,6.10
2019-02-05T04:40:27.174Z,6.41
2019-02-05T04:43:09.886Z,5.67
2019-02-05T04:45:59.221Z,6.23
2019-02-05T04:48:54.799Z,6.36
2019-02-05T04:51:26.244Z,6.31
2019-02-05T04:53:57.780Z,6.15
2019-02-05T04:56:54.796Z,5.75
2019-02-05T04:59:29.228Z,6.12
2019-02-05T05:02:21.894Z,5.45
2019-02-05T05:04:59.468Z,5.73
2019-02-05T05:07:39.852Z,6.58
2019-02-05T05:10:08.565Z,5.81
2019-02-05T05:12:36.840Z,6.03
2019-02-05T05:15:08.374Z,5.76
2019-02-05T05:17:36.653Z,5.64
2019-02-05T05:20:08.427Z,6.12
2019-02-05T05:22:37.065Z,5.65
2019-02-05T05:25:08.794Z,6.47
2019-02-05T05:27:37.216Z,6.27
2019-02-05T05:30:15.127Z,6.54
2019-02-05T05:32:43.461Z,6.81
2019-02-05T05:35:11.791Z,7.23
2019-02-05T05:37:40.054Z,7.12
2019-02-05T05:40:09.557Z,7.29
2019-02-05T05:42:37.895Z,6.86
2019-02-05T05:45:09.370Z,7.01
2019-02-05T05:47:37.639Z,7.37
2019-02-05T05:50:09.087Z,7.16
2019-02-05T05:52:37.351Z,7.35
2019-02-05T05:55:07.100Z,7.71
2019-02-05T05:57:35.373Z,6.84
2019-02-05T06:00:09.458Z,7.26
2019-02-05T06:02:39.840Z,7.50
2019-02-05T06:05:08.385Z,7.29
2019-02-05T06:07:36.668Z,7.04
2019-02-05T06:10:13.928Z,7.48
2019-02-05T06:12:42.293Z,7.32
2019-02-05T06:15:12.602Z,7.31
2019-02-05T06:17:41.524Z,7.38
2019-02-05T06:20:12.980Z,8.16
2019-02-05T06:22:41.252Z,7.21
2019-02-05T06:25:10.468Z,7.37
2019-02-05T06:27:38.851Z,6.97
2019-02-05T06:30:16.670Z,6.98
2019-02-05T06:32:45.039Z,7.03
2019-02-05T06:35:13.679Z,6.89
2019-02-05T06:37:41.940Z,6.46
2019-02-05T06:40:13.950Z,7.04
2019-02-05T06:42:44.091Z,7.24
2019-02-05T06:45:14.804Z,7.71
2019-02-05T06:47:43.233Z,7.23
2019-02-05T06:50:13.222Z,7.10
2019-02-05T06:52:41.576Z,7.54
2019-02-05T06:55:14.054Z,6.62
2019-02-05T06:57:42.331Z,7.30
2019-02-05T07:00:18.932Z,7.15
2019-02-05T07:02:47.289Z,7.65
2019-02-05T07:05:16.103Z,6.99
2019-02-05T07:07:44.381Z,8.26
2019-02-05T07:10:15.751Z,7.55
2019-02-05T07:12:44.023Z,6.59
2019-02-05T07:15:12.366Z,6.69
2019-02-05T07:17:49.213Z,6.77
2019-02-05T07:20:15.653Z,6.62
2019-02-05T07:22:44.354Z,7.28
2019-02-05T07:25:15.966Z,7.05
2019-02-05T07:27:44.300Z,7.48
2019-02-05T07:30:15.803Z,6.80
2019-02-05T07:32:44.027Z,7.00
2019-02-05T07:35:12.670Z,7.12
2019-02-05T07:37:40.972Z,6.94
2019-02-05T07:40:12.417Z,6.99
2019-02-05T07:42:41.209Z,6.31
2019-02-05T07:45:18.800Z,7.28
2019-02-05T07:47:47.247Z,6.76
2019-02-05T07:50:21.560Z,6.66
2019-02-05T07:52:49.900Z,7.26
2019-02-05T07:55:18.170Z,6.48
2019-02-05T07:57:46.808Z,6.96
2019-02-05T08:00:20.606Z,6.61
2019-02-05T08:02:49.054Z,7.22
2019-02-05T08:05:22.831Z,7.04
2019-02-05T08:07:51.191Z,6.89
2019-02-05T08:10:21.376Z,7.13
2019-02-05T08:12:50.436Z,6.45
2019-02-05T08:15:22.024Z,6.92
2019-02-05T08:17:50.339Z,6.82
2019-02-05T08:20:18.631Z,7.38
2019-02-05T08:22:46.894Z,6.86
2019-02-05T08:25:15.648Z,6.62
2019-02-05T08:27:43.961Z,6.96
2019-02-05T08:30:38.010Z,6.99
2019-02-05T08:33:06.301Z,7.31
2019-02-05T08:35:34.561Z,7.22
2019-02-05T08:38:02.827Z,6.59
2019-02-05T08:40:31.092Z,6.29
2019-02-05T08:42:59.449Z,6.25
2019-02-05T08:45:32.562Z,6.70
2019-02-05T08:48:00.868Z,6.87
2019-02-05T08:50:31.669Z,6.90
2019-02-05T08:52:59.930Z,6.95
2019-02-05T08:55:30.806Z,7.12
2019-02-05T08:58:04.100Z,7.50
2019-02-05T09:00:37.325Z,7.20
2019-02-05T09:03:07.044Z,7.05
2019-02-05T09:05:35.338Z,6.67
2019-02-05T09:08:03.578Z,7.62
2019-02-05T09:10:34.089Z,7.83
2019-02-05T09:13:02.381Z,7.49
2019-02-05T09:15:31.096Z,8.33
2019-02-05T09:17:59.454Z,7.81
2019-02-05T09:20:27.909Z,7.68
2019-02-05T09:22:56.317Z,7.88
2019-02-05T09:25:24.640Z,7.54
2019-02-05T09:27:52.936Z,7.81
2019-02-05T09:30:32.929Z,7.68
2019-02-05T09:33:04.106Z,8.18
2019-02-05T09:35:32.364Z,7.74
2019-02-05T09:38:00.824Z,8.23
2019-02-05T09:40:32.835Z,7.90
2019-02-05T09:43:01.331Z,8.00
2019-02-05T09:45:31.085Z,8.78
2019-02-05T09:47:59.982Z,8.20
2019-02-05T09:50:30.817Z,7.83
2019-02-05T09:52:59.100Z,7.77
2019-02-05T09:55:27.447Z,7.91
2019-02-05T09:57:55.776Z,7.93
2019-02-05T10:00:27.275Z,7.71
2019-02-05T10:02:56.149Z,8.21
2019-02-05T10:08:06.981Z,8.00
2019-02-05T10:10:35.257Z,7.99
2019-02-05T10:13:04.571Z,8.74
2019-02-05T10:15:53.430Z,8.59
2019-02-05T10:18:21.810Z,8.20
2019-02-05T10:20:51.035Z,8.64
2019-02-05T10:23:19.317Z,7.54
2019-02-05T10:25:47.618Z,7.73
2019-02-05T10:28:15.943Z,8.33
2019-02-05T10:30:45.149Z,8.66
2019-02-05T10:33:13.481Z,8.95
2019-02-05T10:35:42.307Z,8.35
2019-02-05T10:38:10.765Z,8.62
2019-02-05T10:40:39.030Z,8.06
2019-02-05T10:43:07.473Z,8.35
2019-02-05T10:45:36.166Z,7.69
2019-02-05T10:48:25.169Z,7.87
2019-02-05T10:50:53.499Z,9.61
2019-02-05T10:53:21.795Z,9.60
2019-02-05T10:55:50.161Z,10.45
2019-02-05T10:58:18.495Z,9.41
2019-02-05T11:00:47.053Z,9.06
2019-02-05T11:03:15.371Z,10.07
2019-02-05T11:05:43.737Z,9.19
2019-02-05T11:08:12.026Z,8.87
2019-02-05T11:10:40.495Z,8.80
2019-02-05T11:13:08.837Z,10.04
2019-02-05T11:15:37.119Z,9.03
2019-02-05T11:18:08.042Z,8.87
2019-02-05T11:20:36.463Z,9.01
2019-02-05T11:23:05.771Z,8.09
2019-02-05T11:25:34.114Z,9.22
2019-02-05T11:28:02.454Z,9.36
2019-02-05T11:30:36.323Z,9.52
2019-02-05T11:33:04.989Z,10.90
2019-02-05T11:35:33.723Z,9.65
2019-02-05T11:38:05.533Z,8.88
2019-02-05T11:40:39.932Z,8.82
2019-02-05T11:43:08.572Z,9.25
2019-02-05T11:45:37.172Z,10.58
2019-02-05T11:48:08.601Z,10.14
2019-02-05T11:50:37.173Z,9.45
2019-02-05T11:53:05.488Z,9.04
2019-02-05T11:55:34.883Z,10.18
2019-02-05T11:58:03.224Z,8.78
2019-02-05T12:00:33.533Z,10.12
2019-02-05T12:03:02.101Z,9.65
2019-02-05T12:05:30.453Z,10.18
2019-02-05T12:07:59.026Z,9.60
2019-02-05T12:10:27.358Z,10.12
2019-02-05T12:12:55.732Z,10.70
2019-02-05T12:15:23.997Z,10.55
2019-02-05T12:17:52.450Z,10.44
2019-02-05T12:20:20.809Z,9.65
2019-02-05T12:22:50.247Z,10.04
2019-02-05T12:25:23.433Z,10.24
2019-02-05T12:27:51.836Z,9.72
2019-02-05T12:30:28.823Z,9.50
2019-02-05T12:32:57.352Z,10.08
2019-02-05T12:35:25.742Z,10.87
2019-02-05T12:37:54.119Z,11.28
2019-02-05T12:40:22.966Z,10.72
2019-02-05T12:42:51.497Z,10.61
2019-02-05T12:45:22.628Z,10.82
2019-02-05T12:47:51.181Z,11.32
2019-02-05T12:50:21.886Z,11.50
2019-02-05T12:52:50.262Z,11.11
2019-02-05T12:55:18.951Z,11.23
2019-02-05T12:57:47.312Z,11.07
2019-02-05T13:00:27.415Z,10.98
2019-02-05T13:03:03.745Z,11.26
2019-02-05T13:05:32.187Z,11.39
2019-02-05T13:08:00.990Z,11.11
2019-02-05T13:10:32.302Z,11.26
2019-02-05T13:13:00.650Z,11.49
2019-02-05T13:15:29.010Z,11.80
2019-02-05T13:17:57.315Z,11.96
2019-02-05T13:20:30.247Z,12.24
2019-02-05T13:22:59.146Z,11.98
2019-02-05T13:25:32.002Z,10.75
2019-02-05T13:28:00.558Z,10.64
2019-02-05T13:30:31.644Z,11.04
2019-02-05T13:33:00.214Z,10.48
2019-02-05T13:35:29.424Z,11.23
2019-02-05T13:37:57.941Z,10.12
2019-02-05T13:40:27.692Z,10.93
2019-02-05T13:42:56.300Z,10.74
2019-02-05T13:45:43.494Z,10.85
2019-02-05T13:48:14.255Z,10.52
2019-02-05T13:50:42.701Z,10.74
2019-02-05T13:53:11.045Z,11.32
2019-02-05T13:55:41.360Z,12.88
2019-02-05T13:58:10.581Z,12.16
2019-02-05T14:00:47.433Z,13.31
2019-02-05T14:03:15.816Z,12.11
2019-02-05T14:05:44.429Z,11.91
2019-02-05T14:08:12.864Z,13.57
2019-02-05T14:10:43.367Z,12.67
2019-02-05T14:13:14.250Z,12.23
2019-02-05T14:15:45.048Z,11.49
2019-02-05T14:18:13.407Z,11.86
2019-02-05T14:20:41.677Z,13.41
2019-02-05T14:23:10.135Z,12.33
2019-02-05T14:25:38.419Z,12.08
2019-02-05T14:28:06.774Z,12.17
2019-02-05T14:30:37.865Z,11.96
2019-02-05T14:33:06.469Z,12.16
2019-02-05T14:35:35.366Z,12.52
2019-02-05T14:38:04.313Z,12.59
2019-02-05T14:40:32.647Z,12.43
2019-02-05T14:43:00.939Z,12.14
2019-02-05T14:45:29.232Z,11.76
2019-02-05T14:47:57.895Z,11.55
2019-02-05T14:50:31.755Z,11.65
2019-02-05T14:53:00.123Z,12.17
2019-02-05T14:55:28.409Z,11.73
2019-02-05T14:57:57.485Z,11.93
2019-02-05T15:00:39.489Z,11.39
2019-02-05T15:03:09.606Z,12.01
2019-02-05T15:05:38.565Z,10.89
2019-02-05T15:08:07.762Z,10.61
2019-02-05T15:10:36.052Z,11.31
2019-02-05T15:13:05.100Z,10.61
2019-02-05T15:15:33.654Z,10.41
2019-02-05T15:18:01.929Z,11.15
2019-02-05T15:20:38.558Z,11.08
2019-02-05T15:23:07.716Z,10.20
2019-02-05T15:25:36.409Z,11.03
2019-02-05T15:28:05.208Z,10.66
2019-02-05T15:30:38.747Z,10.27
2019-02-05T15:33:17.022Z,10.98
2019-02-05T15:35:59.010Z,11.36
2019-02-05T15:38:27.645Z,10.58
2019-02-05T15:40:56.011Z,10.57
2019-02-05T15:43:35.546Z,10.85
2019-02-05T15:46:03.848Z,10.95
2019-02-05T15:48:32.107Z,10.56
2019-02-05T15:51:00.385Z,11.16
2019-02-05T15:53:28.699Z,11.70
2019-02-05T15:55:56.970Z,11.36
2019-02-05T15:58:25.258Z,10.98
2019-02-05T16:00:53.519Z,10.91
2019-02-05T16:03:21.902Z,10.59
2019-02-05T16:05:50.152Z,11.10
2019-02-05T16:08:18.801Z,11.79
2019-02-05T16:10:47.104Z,11.73
2019-02-05T16:13:15.436Z,12.17
2019-02-05T16:15:43.741Z,11.03
2019-02-05T16:18:12.194Z,11.22
2019-02-05T16:20:40.566Z,10.73
2019-02-05T16:23:08.838Z,10.23
2019-02-05T16:25:37.308Z,10.96
2019-02-05T16:28:05.678Z,10.85
2019-02-05T16:30:35.039Z,11.17
2019-02-05T16:33:03.382Z,11.11
2019-02-05T16:35:31.708Z,11.39
2019-02-05T16:38:00.065Z,11.00
2019-02-05T16:40:39.143Z,11.27
2019-02-05T16:43:07.776Z,10.70
2019-02-05T16:45:36.039Z,11.05
2019-02-05T16:48:04.843Z,10.88
2019-02-05T16:50:44.591Z,10.99
2019-02-05T16:53:13.414Z,10.93
2019-02-05T16:55:41.719Z,10.88
2019-02-05T16:58:10.147Z,10.64
2019-02-05T17:00:39.372Z,10.13
2019-02-05T17:03:07.977Z,10.11
2019-02-05T17:05:41.542Z,10.51
2019-02-05T17:08:10.257Z,10.57
2019-02-05T17:10:38.525Z,10.81
2019-02-05T17:13:06.816Z,10.70
2019-02-05T17:15:35.180Z,10.79
2019-02-05T17:18:03.541Z,10.67
2019-02-05T17:20:32.643Z,10.30
2019-02-05T17:23:01.199Z,10.97
2019-02-05T17:25:29.852Z,10.20
2019-02-05T17:28:00.429Z,10.29
2019-02-05T17:30:31.140Z,10.59
2019-02-05T17:32:59.485Z,10.49
2019-02-05T17:35:27.776Z,10.53
2019-02-05T17:37:56.084Z,10.28
2019-02-05T17:40:25.913Z,10.41
2019-02-05T17:42:58.265Z,10.70
2019-02-05T17:45:35.376Z,10.97
2019-02-05T17:48:06.674Z,10.55
2019-02-05T17:50:34.929Z,10.95
2019-02-05T17:53:03.607Z,10.95
2019-02-05T17:55:31.884Z,10.65
2019-02-05T17:58:00.174Z,10.49
2019-02-05T18:00:37.151Z,11.14
2019-02-05T18:03:06.157Z,11.20
2019-02-05T18:05:35.102Z,11.07
2019-02-05T18:08:04.362Z,10.90
2019-02-05T18:10:32.635Z,11.54
2019-02-05T18:13:00.991Z,11.03
2019-02-05T18:15:34.349Z,10.81
2019-02-05T18:18:02.687Z,11.03
2019-02-05T18:20:31.425Z,10.79
2019-02-05T18:22:59.724Z,10.70
2019-02-05T18:25:27.987Z,10.79
2019-02-05T18:27:56.261Z,10.45
2019-02-05T18:30:27.288Z,10.50
2019-02-05T18:33:03.315Z,10.56
2019-02-05T18:35:25.809Z,10.60
2019-02-05T18:37:54.067Z,10.60
2019-02-05T18:40:24.959Z,10.06
2019-02-05T18:42:53.367Z,10.08
2019-02-05T18:45:21.713Z,10.43
2019-02-05T18:47:50.136Z,10.28
2019-02-05T18:50:23.793Z,9.93
2019-02-05T18:52:52.102Z,9.93
2019-02-05T18:55:21.952Z,10.74
2019-02-05T18:57:50.276Z,10.94
2019-02-05T19:00:29.742Z,10.88
2019-02-05T19:02:58.158Z,10.85
2019-02-05T19:05:26.813Z,10.25
2019-02-05T19:07:55.153Z,10.57
2019-02-05T19:10:28.231Z,10.67
2019-02-05T19:12:56.539Z,10.45
2019-02-05T19:15:30.495Z,9.97
2019-02-05T19:17:58.774Z,10.46
2019-02-05T19:20:29.686Z,10.24
2019-02-05T19:22:58.235Z,10.54
2019-02-05T19:25:37.592Z,10.30
2019-02-05T19:28:05.950Z,9.93
2019-02-05T19:30:35.962Z,10.14
2019-02-05T19:33:04.482Z,10.96
2019-02-05T19:35:32.775Z,11.20
2019-02-05T19:38:01.078Z,11.11
2019-02-05T19:40:29.380Z,11.42
2019-02-05T19:42:57.688Z,11.36
2019-02-05T19:45:43.400Z,11.25
2019-02-05T19:48:19.231Z,11.35
2019-02-05T19:50:47.988Z,11.47
2019-02-05T19:53:16.294Z,11.89
2019-02-05T19:55:44.639Z,11.39
2019-02-05T19:58:12.926Z,11.59
2019-02-05T20:00:41.241Z,11.77
2019-02-05T20:03:09.886Z,11.62
2019-02-05T20:05:38.196Z,10.17
2019-02-05T20:08:06.935Z,10.40
2019-02-05T20:10:35.239Z,10.37
2019-02-05T20:13:03.541Z,11.24
2019-02-05T20:15:31.856Z,11.45
2019-02-05T20:18:00.157Z,10.55
2019-02-05T20:20:31.720Z,10.40
2019-02-05T20:23:00.085Z,11.22
2019-02-05T20:25:28.375Z,10.71
2019-02-05T20:27:56.678Z,10.66
2019-02-05T20:30:26.486Z,10.56
2019-02-05T20:32:54.984Z,11.87
2019-02-05T20:35:23.269Z,11.56
2019-02-05T20:37:51.834Z,11.25
2019-02-05T20:40:26.182Z,11.03
2019-02-05T20:42:54.573Z,11.79
2019-02-05T20:45:22.937Z,11.54
2019-02-05T20:47:51.255Z,11.15
2019-02-05T20:50:20.537Z,11.18
2019-02-05T20:52:49.688Z,11.97
2019-02-05T20:55:25.078Z,11.80
2019-02-05T20:57:53.429Z,11.14
2019-02-05T21:00:29.820Z,11.20
2019-02-05T21:02:58.265Z,11.59
2019-02-05T21:05:26.615Z,10.77
2019-02-05T21:07:55.383Z,10.60
2019-02-05T21:10:29.098Z,10.84
2019-02-05T21:12:57.441Z,10.17
2019-02-05T21:15:25.892Z,10.34
2019-02-05T21:17:54.163Z,11.36
2019-02-05T21:20:34.182Z,11.05
2019-02-05T21:23:02.579Z,10.37
2019-02-05T21:25:30.950Z,10.33
2019-02-05T21:27:59.301Z,9.89
2019-02-05T21:30:27.919Z,10.65
2019-02-05T21:32:56.340Z,10.25
2019-02-05T21:35:24.717Z,10.54
2019-02-05T21:37:52.992Z,10.23
2019-02-05T21:40:22.684Z,9.81
2019-02-05T21:42:51.357Z,10.34
2019-02-05T21:45:25.329Z,9.87
2019-02-05T21:47:53.594Z,9.57
2019-02-05T21:50:24.721Z,10.01
2019-02-05T21:52:53.103Z,9.89
2019-02-05T21:55:26.441Z,9.35
2019-02-05T21:57:56.019Z,9.70
2019-02-05T22:00:37.916Z,9.41
2019-02-05T22:03:07.024Z,10.47
2019-02-05T22:05:35.319Z,8.92
2019-02-05T22:08:04.120Z,9.34
2019-02-05T22:10:32.421Z,9.16
2019-02-05T22:13:00.657Z,8.89
2019-02-05T22:15:29.475Z,8.98
2019-02-05T22:17:58.200Z,9.22
2019-02-05T22:20:27.932Z,8.70
2019-02-05T22:22:56.805Z,8.92
2019-02-05T22:25:27.894Z,8.76
2019-02-05T22:27:56.256Z,8.78
2019-02-05T22:30:30.589Z,9.11
2019-02-05T22:32:58.961Z,9.57
2019-02-05T22:35:27.328Z,8.85
2019-02-05T22:37:55.715Z,8.81
2019-02-05T22:40:25.832Z,9.41
2019-02-05T22:42:54.190Z,9.43
2019-02-05T22:45:32.389Z,9.17
2019-02-05T22:48:00.700Z,9.17
2019-02-05T22:50:33.974Z,9.27
2019-02-05T22:53:04.693Z,7.90
2019-02-05T22:55:33.107Z,7.77
2019-02-05T22:58:01.422Z,7.75
2019-02-05T23:00:48.403Z,7.84
2019-02-05T23:03:19.106Z,7.51
2019-02-05T23:06:07.182Z,7.24
2019-02-05T23:08:35.539Z,7.67
2019-02-05T23:11:38.651Z,8.88
2019-02-05T23:14:09.850Z,8.75
2019-02-05T23:16:38.203Z,7.99
2019-02-05T23:19:07.339Z,7.66
2019-02-05T23:21:39.251Z,7.86
2019-02-05T23:24:14.543Z,7.60
2019-02-05T23:26:40.062Z,7.04
2019-02-05T23:29:08.415Z,7.32
2019-02-05T23:31:38.690Z,6.87
2019-02-05T23:34:08.369Z,6.81
2019-02-05T23:36:40.147Z,7.41
2019-02-05T23:39:10.156Z,7.14
2019-02-05T23:41:40.057Z,6.96
2019-02-05T23:44:08.409Z,6.99
2019-02-05T23:46:37.914Z,8.21
2019-02-05T23:49:06.215Z,8.13
2019-02-05T23:51:34.673Z,8.07
2019-02-05T23:54:02.958Z,8.29
2019-02-05T23:56:33.640Z,7.62
2019-02-05T23:59:01.881Z,8.10
